Two Hills, Canada
Current Conditions -  °F | °C
As of 2:17 AM on Wednesday 28 Jan 2015 (Local Time) from CYED Reporting Station
Overcast Overcast  
Wind Chill: -6°   Ceiling: 200
Heat Index: -1°   Visibility: 3mi
Dew Point: -2°   Wind: 10mph
Humidity: 93%   Direction: 270°W
Pressure: 29.95"   Gusts: NA
Location:  53.72°N, 111.75°W
Report Text: CYED 280917Z AUTO 27009KT 3SM OVC002 M01/M02 A2995
Loading
Personal Weather Stations






























Interactive Weather Map New forecast layout! Learn more

10-Day Weather Forecast

Advertisements
Track Severe Weather on mobile